Carrier Princess — CZ3582 — position and weather

sailwx.info

Track history (hours):
 
Tides and Currents Weather Stations Pressure Air Temp Water Temp Dewpoint Dewpoint Depression Visibility Wind Speed Wind Dir Waves Ship Positions

Carrier Princess

Last reported at 2017-Jan-19 20:34 UTC. Time now 2017-Jan-19 21:18 UTC.
Position N 49°09' W 123°02'.

Length 112 m; draft 3 m.

Type: Cargo ship. MMSI: 316003656.

Date/timePositionNaut miles runAvg speedWind from/ knotsBaromVisibWave heightAir tempDewpointWater temp
2017-Jan-19 20:34N 49°09' W 123°02'0 0.0
2017-Jan-19 19:33N 49°09' W 123°02'0 0.0
2017-Jan-19 18:34N 49°09' W 123°02'0 0.0
2017-Jan-19 17:33N 49°09' W 123°02'0 0.0
2017-Jan-19 16:33N 49°09' W 123°02'0 0.0
2017-Jan-19 15:34N 49°09' W 123°02'9 9.2
2017-Jan-19 14:33N 49°07' W 123°16'1010.4
2017-Jan-19 13:33N 48°57' W 123°18'1312.6
2017-Jan-19 12:33N 48°45' W 123°23'3 3.0
2017-Jan-19 11:23N 48°41' W 123°24'1 0.8
2017-Jan-19 10:33N 48°42' W 123°24'1212.3
2017-Jan-19 09:34N 48°53' W 123°18'1413.6
2017-Jan-19 08:33N 49°07' W 123°17'10 9.6
2017-Jan-19 07:33N 49°09' W 123°02'0 0.0
2017-Jan-19 06:33N 49°09' W 123°02'1010.3
2017-Jan-19 05:33N 49°06' W 123°17'1414.0
2017-Jan-19 04:33N 48°52' W 123°18'1211.8
2017-Jan-19 03:33N 48°41' W 123°24'0 0.1
2017-Jan-19 02:33N 48°41' W 123°24'7 7.0
2017-Jan-19 01:33N 48°48' W 123°21'1312.7
2017-Jan-19 00:33N 49°01' W 123°21'1312.6
2017-Jan-18 23:34N 49°07' W 123°05'2 2.4
2017-Jan-18 22:33N 49°09' W 123°02'0 0.0
2017-Jan-18 21:33N 49°09' W 123°02'0 0.0
2017-Jan-18 20:33N 49°09' W 123°02'0 0.0
2017-Jan-18 19:33N 49°09' W 123°02'0 0.0
2017-Jan-18 18:34N 49°09' W 123°02'0 0.0
2017-Jan-18 17:33N 49°09' W 123°02'0 0.0
2017-Jan-18 16:33N 49°09' W 123°02'0 0.0
2017-Jan-18 15:34N 49°09' W 123°02'9 8.6
2017-Jan-18 14:33N 49°08' W 123°15'1111.1
2017-Jan-18 13:33N 48°57' W 123°19'1212.5
2017-Jan-18 12:33N 48°44' W 123°23'3 3.3
2017-Jan-18 11:33N 48°41' W 123°24'7 6.7
2017-Jan-18 10:33N 48°47' W 123°21'1313.2
2017-Jan-18 09:33N 49°01' W 123°20'1211.8
2017-Jan-18 08:34N 49°07' W 123°05'2 2.3
2017-Jan-18 07:33N 49°09' W 123°02'3 3.4
2017-Jan-18 06:33N 49°07' W 123°06'9 9.2
2017-Jan-18 05:33N 49°03' W 123°20'1211.8
2017-Jan-18 04:33N 48°52' W 123°20'1110.7
2017-Jan-18 03:33N 48°41' W 123°24'0 0.0
2017-Jan-18 02:33N 48°41' W 123°24'6 6.1
2017-Jan-18 01:33N 48°47' W 123°21'1212.1
2017-Jan-18 00:34N 48°59' W 123°19'1110.9
2017-Jan-17 23:33N 49°07' W 123°07'4 3.8
2017-Jan-17 22:33N 49°09' W 123°02'0 0.0
2017-Jan-17 21:33N 49°09' W 123°02'0 0.0
2017-Jan-17 20:33N 49°09' W 123°02'0 0.0
2017-Jan-17 19:33N 49°09' W 123°02'0 0.0
2017-Jan-17 18:33N 49°09' W 123°02'0 0.0
2017-Jan-17 17:33N 49°09' W 123°02'0 0.0
2017-Jan-17 16:33N 49°09' W 123°02'0 0.0
2017-Jan-17 15:33N 49°09' W 123°02'9 8.9
2017-Jan-17 14:34N 49°07' W 123°16'10 9.5
2017-Jan-17 13:33N 48°58' W 123°18'1212.0
2017-Jan-17 12:33N 48°46' W 123°21'5 5.2
2017-Jan-17 11:33N 48°41' W 123°24'3 3.4
2017-Jan-17 10:33N 48°44' W 123°21'1413.8
2017-Jan-17 09:33N 48°57' W 123°18'1111.3
2017-Jan-17 08:34N 49°07' W 123°08'5 4.7
2017-Jan-17 07:34N 49°09' W 123°02'5 5.0
2017-Jan-17 06:34N 49°06' W 123°09'1010.0
2017-Jan-17 05:33N 48°59' W 123°19'1312.9
2017-Jan-17 04:33N 48°46' W 123°21'5 5.2
2017-Jan-17 03:33N 48°41' W 123°24'0 0.0
2017-Jan-17 02:33N 48°41' W 123°24'8 8.0
2017-Jan-17 01:32N 48°49' W 123°21'1111.7
2017-Jan-17 00:33N 49°01' W 123°20'1211.6
2017-Jan-16 23:33N 49°07' W 123°05'3 2.7
2017-Jan-16 22:33N 49°09' W 123°02'2 1.8
2017-Jan-16 21:33N 49°07' W 123°04'10 9.9
2017-Jan-16 20:34N 49°06' W 123°19'1413.5
2017-Jan-16 19:33N 48°52' W 123°18'1111.6
2017-Jan-16 18:33N 48°41' W 123°24'0 0.1
2017-Jan-16 17:33N 48°41' W 123°24'0 0.0
2017-Jan-16 16:33N 48°41' W 123°24'0 0.0
2017-Jan-16 15:33N 48°41' W 123°24'0 0.0
2017-Jan-16 14:32N 48°41' W 123°24'0 0.0
2017-Jan-16 13:33N 48°41' W 123°24'0 0.0
2017-Jan-16 12:33N 48°41' W 123°24'0 0.0
2017-Jan-16 11:33N 48°41' W 123°24'4 3.7
2017-Jan-16 10:34N 48°44' W 123°21'9 9.0
2017-Jan-16 09:33N 48°53' W 123°18'1111.4
2017-Jan-16 08:34N 49°04' W 123°20'1212.0
2017-Jan-16 07:33N 49°09' W 123°02'0 0.2
2017-Jan-16 06:33N 49°09' W 123°02'0 0.0
2017-Jan-16 05:34N 49°09' W 123°02'0 0.0
2017-Jan-16 04:33N 49°09' W 123°02'0 0.0
2017-Jan-16 03:33N 49°09' W 123°02'0 0.0
2017-Jan-16 02:33N 49°09' W 123°02'0 0.0
2017-Jan-16 01:33N 49°09' W 123°02'0 0.0
2017-Jan-16 00:33N 49°09' W 123°02'0 0.0
2017-Jan-15 23:33N 49°09' W 123°02'0 0.0
2017-Jan-15 22:33N 49°09' W 123°02'0 0.0
2017-Jan-15 21:34N 49°09' W 123°02'0 0.0
2017-Jan-15 20:33N 49°09' W 123°02'0 0.0
2017-Jan-15 19:34N 49°09' W 123°02'0 0.0
2017-Jan-15 18:33N 49°09' W 123°02'0 0.0
2017-Jan-15 17:33N 49°09' W 123°02'3 3.5
2017-Jan-15 16:34N 49°07' W 123°06'9 9.1
2017-Jan-15 15:33N 49°06' W 123°20'1010.2
2017-Jan-15 14:33N 49°10' W 123°35'10 9.9
2017-Jan-15 13:33N 49°13' W 123°49'3 0.7
2017-Jan-15 09:29N 49°12' W 123°53'9 9.8
2017-Jan-15 08:33N 49°11' W 123°39'1010.3
2017-Jan-15 07:32N 49°07' W 123°24'1211.9
2017-Jan-15 06:33N 49°07' W 123°07'4 3.5
2017-Jan-15 05:33N 49°09' W 123°02'0 0.0
2017-Jan-15 04:34N 49°09' W 123°02'0 0.0
2017-Jan-15 03:34N 49°09' W 123°02'0 0.0
2017-Jan-15 02:34N 49°09' W 123°02'0 0.0
2017-Jan-15 01:34N 49°09' W 123°02'0 0.0
2017-Jan-15 00:34N 49°09' W 123°02'5 4.7
2017-Jan-14 23:34N 49°06' W 123°08'1110.6
2017-Jan-14 22:34N 49°07' W 123°25'1111.3
2017-Jan-14 21:33N 49°11' W 123°41'6 0.6
2017-Jan-14 11:33N 49°14' W 123°50'1413.9
2017-Jan-14 10:31N 49°08' W 123°30'1212.6
2017-Jan-14 09:33N 49°07' W 123°12'6 6.4
2017-Jan-14 08:33N 49°09' W 123°02'0 0.0
2017-Jan-14 07:33N 49°09' W 123°02'7 7.4
2017-Jan-14 06:33N 49°08' W 123°13'9 9.2
2017-Jan-14 05:33N 48°59' W 123°18'1010.1
2017-Jan-14 04:31N 48°49' W 123°20'8 8.0
2017-Jan-14 03:33N 48°41' W 123°24'30 7.6
2017-Jan-13 23:34N 49°08' W 123°03'1 0.7
2017-Jan-13 22:33N 49°09' W 123°02'2 1.5
2017-Jan-13 21:33N 49°08' W 123°04'1111.1
2017-Jan-13 20:33N 49°06' W 123°21'1313.1
2017-Jan-13 19:32N 49°11' W 123°40'8 0.9
2017-Jan-13 11:32N 49°13' W 123°51'1312.4
2017-Jan-13 10:31N 49°10' W 123°33'1313.2
2017-Jan-13 09:33N 49°08' W 123°13'7 7.4
2017-Jan-13 08:34N 49°09' W 123°02'0 0.0
2017-Jan-13 07:33N 49°09' W 123°02'8 8.3
2017-Jan-13 06:34N 49°08' W 123°15'10 9.9
2017-Jan-13 05:34N 48°58' W 123°18'1111.3
2017-Jan-13 04:33N 48°47' W 123°21'6 6.0
2017-Jan-13 03:33N 48°41' W 123°24'0 0.0
2017-Jan-13 02:33N 48°41' W 123°24'11 9.0
2017-Jan-13 01:21N 48°52' W 123°19'1215.7
2017-Jan-13 00:33N 49°04' W 123°19'1211.9
2017-Jan-12 23:33N 49°09' W 123°02'0 0.2
2017-Jan-12 22:34N 49°09' W 123°02'1 1.4
2017-Jan-12 21:33N 49°08' W 123°04'1111.4
2017-Jan-12 20:33N 49°06' W 123°21'1312.8
2017-Jan-12 19:34N 49°11' W 123°39'1110.9
2017-Jan-12 18:33N 49°10' W 123°56'0 0.1
2017-Jan-12 17:33N 49°10' W 123°56'0 0.0
2017-Jan-12 16:33N 49°10' W 123°56'0 0.0
2017-Jan-12 15:33N 49°10' W 123°56'0 0.0
2017-Jan-12 14:33N 49°10' W 123°56'0 0.0
2017-Jan-12 13:33N 49°10' W 123°56'0 0.0
2017-Jan-12 12:33N 49°10' W 123°56'5 5.1
2017-Jan-12 11:33N 49°13' W 123°50'1414.4
2017-Jan-12 10:33N 49°09' W 123°29'1313.4
2017-Jan-12 09:34N 49°07' W 123°09'5 5.1
2017-Jan-12 08:33N 49°09' W 123°02'0 0.1
2017-Jan-12 07:34N 49°09' W 123°02'10 9.6
2017-Jan-12 06:33N 49°07' W 123°17'1212.2
2017-Jan-12 05:33N 48°55' W 123°18'1212.3
2017-Jan-12 04:34N 48°43' W 123°25'2 2.1
2017-Jan-12 03:34N 48°41' W 123°24'0 0.0
2017-Jan-12 02:33N 48°41' W 123°24'11 9.8
2017-Jan-12 01:27N 48°52' W 123°19'1415.3
2017-Jan-12 00:34N 49°05' W 123°19'1211.7
2017-Jan-11 23:34N 49°09' W 123°02'0 0.1
2017-Jan-11 22:33N 49°09' W 123°02'1 1.3
2017-Jan-11 21:34N 49°08' W 123°04'1211.9
2017-Jan-11 20:33N 49°06' W 123°22'1312.7
2017-Jan-11 19:33N 49°12' W 123°39'1110.0
2017-Jan-11 18:28N 49°10' W 123°56'0 0.0
2017-Jan-11 17:29N 49°10' W 123°56'0 0.0
2017-Jan-11 16:33N 49°10' W 123°56'0 0.0
2017-Jan-11 15:28N 49°10' W 123°56'0 0.0
2017-Jan-11 14:31N 49°10' W 123°56'0 0.0
2017-Jan-11 13:20N 49°10' W 123°56'0 0.0
2017-Jan-11 12:32N 49°10' W 123°56'6 5.5
2017-Jan-11 11:32N 49°14' W 123°49'1414.3
2017-Jan-11 10:32N 49°09' W 123°29'1312.9
2017-Jan-11 09:33N 49°07' W 123°10'6 5.5
2017-Jan-11 08:34N 49°09' W 123°02'0 0.0
2017-Jan-11 07:33N 49°09' W 123°02'10 9.6
2017-Jan-11 06:34N 49°07' W 123°17'1312.7
2017-Jan-11 05:33N 48°54' W 123°19'1212.2
2017-Jan-11 04:33N 48°43' W 123°26'2 1.9
2017-Jan-11 03:33N 48°41' W 123°24'0 0.0
2017-Jan-11 02:33N 48°41' W 123°24'11 9.4
2017-Jan-11 01:22N 48°52' W 123°19'1215.4
2017-Jan-11 00:34N 49°04' W 123°19'1211.7
2017-Jan-10 23:34N 49°09' W 123°02'0 0.2
2017-Jan-10 22:33N 49°09' W 123°02'0 0.1
2017-Jan-10 21:34N 49°09' W 123°02'1010.1
2017-Jan-10 20:33N 49°06' W 123°18'1312.8
2017-Jan-10 19:33N 49°11' W 123°36'1111.5
2017-Jan-10 18:33N 49°11' W 123°54'2 1.5
2017-Jan-10 17:31N 49°10' W 123°56'0 0.0
2017-Jan-10 16:32N 49°10' W 123°56'0 0.0
2017-Jan-10 15:33N 49°10' W 123°56'0 0.0
2017-Jan-10 14:33N 49°10' W 123°56'0 0.0
2017-Jan-10 13:32N 49°10' W 123°56'0 0.0
2017-Jan-10 12:33N 49°10' W 123°56'5 5.3
2017-Jan-10 11:33N 49°14' W 123°50'1413.6
2017-Jan-10 10:33N 49°08' W 123°31'1312.8
2017-Jan-10 09:34N 49°07' W 123°11'6 6.2
2017-Jan-10 08:33N 49°09' W 123°02'0 0.0
2017-Jan-10 07:33N 49°09' W 123°02'7 6.7
2017-Jan-10 06:33N 49°07' W 123°12'1110.8
2017-Jan-10 05:33N 48°57' W 123°19'1313.3
2017-Jan-10 04:33N 48°44' W 123°21'4 3.8
2017-Jan-10 03:34N 48°41' W 123°24'0 0.0
2017-Jan-10 02:33N 48°41' W 123°24'7 6.5
2017-Jan-10 01:32N 48°47' W 123°21'1413.8
2017-Jan-10 00:33N 49°01' W 123°19'1110.8
2017-Jan-09 23:33N 49°07' W 123°05'3 2.7
2017-Jan-09 22:33N 49°09' W 123°02'0 0.0
2017-Jan-09 21:33N 49°09' W 123°02'  
Track history (hours):
 
Tides and Currents Weather Stations Pressure Air Temp Water Temp Dewpoint Dewpoint Depression Visibility Wind Speed Wind Dir Waves Ship Positions

Carrier Princess

Last reported at 2017-Jan-19 20:34 UTC. Time now 2017-Jan-19 21:18 UTC.
Position N 49°09' W 123°02'.

Length 112 m; draft 3 m.

Type: Cargo ship. MMSI: 316003656.

Date/timePositionNaut miles runAvg speedWind from/ knotsBaromVisibWave heightAir tempDewpointWater temp
2017-Jan-19 20:34N 49°09' W 123°02'0 0.0
2017-Jan-19 19:33N 49°09' W 123°02'0 0.0
2017-Jan-19 18:34N 49°09' W 123°02'0 0.0
2017-Jan-19 17:33N 49°09' W 123°02'0 0.0
2017-Jan-19 16:33N 49°09' W 123°02'0 0.0
2017-Jan-19 15:34N 49°09' W 123°02'9 9.2
2017-Jan-19 14:33N 49°07' W 123°16'1010.4
2017-Jan-19 13:33N 48°57' W 123°18'1312.6
2017-Jan-19 12:33N 48°45' W 123°23'3 3.0
2017-Jan-19 11:23N 48°41' W 123°24'1 0.8
2017-Jan-19 10:33N 48°42' W 123°24'1212.3
2017-Jan-19 09:34N 48°53' W 123°18'1413.6
2017-Jan-19 08:33N 49°07' W 123°17'10 9.6
2017-Jan-19 07:33N 49°09' W 123°02'0 0.0
2017-Jan-19 06:33N 49°09' W 123°02'1010.3
2017-Jan-19 05:33N 49°06' W 123°17'1414.0
2017-Jan-19 04:33N 48°52' W 123°18'1211.8
2017-Jan-19 03:33N 48°41' W 123°24'0 0.1
2017-Jan-19 02:33N 48°41' W 123°24'7 7.0
2017-Jan-19 01:33N 48°48' W 123°21'1312.7
2017-Jan-19 00:33N 49°01' W 123°21'1312.6
2017-Jan-18 23:34N 49°07' W 123°05'2 2.4
2017-Jan-18 22:33N 49°09' W 123°02'0 0.0
2017-Jan-18 21:33N 49°09' W 123°02'0 0.0
2017-Jan-18 20:33N 49°09' W 123°02'0 0.0
2017-Jan-18 19:33N 49°09' W 123°02'0 0.0
2017-Jan-18 18:34N 49°09' W 123°02'0 0.0
2017-Jan-18 17:33N 49°09' W 123°02'0 0.0
2017-Jan-18 16:33N 49°09' W 123°02'0 0.0
2017-Jan-18 15:34N 49°09' W 123°02'9 8.6
2017-Jan-18 14:33N 49°08' W 123°15'1111.1
2017-Jan-18 13:33N 48°57' W 123°19'1212.5
2017-Jan-18 12:33N 48°44' W 123°23'3 3.3
2017-Jan-18 11:33N 48°41' W 123°24'7 6.7
2017-Jan-18 10:33N 48°47' W 123°21'1313.2
2017-Jan-18 09:33N 49°01' W 123°20'1211.8
2017-Jan-18 08:34N 49°07' W 123°05'2 2.3
2017-Jan-18 07:33N 49°09' W 123°02'3 3.4
2017-Jan-18 06:33N 49°07' W 123°06'9 9.2
2017-Jan-18 05:33N 49°03' W 123°20'1211.8
2017-Jan-18 04:33N 48°52' W 123°20'1110.7
2017-Jan-18 03:33N 48°41' W 123°24'0 0.0
2017-Jan-18 02:33N 48°41' W 123°24'6 6.1
2017-Jan-18 01:33N 48°47' W 123°21'1212.1
2017-Jan-18 00:34N 48°59' W 123°19'1110.9
2017-Jan-17 23:33N 49°07' W 123°07'4 3.8
2017-Jan-17 22:33N 49°09' W 123°02'0 0.0
2017-Jan-17 21:33N 49°09' W 123°02'0 0.0
2017-Jan-17 20:33N 49°09' W 123°02'0 0.0
2017-Jan-17 19:33N 49°09' W 123°02'0 0.0
2017-Jan-17 18:33N 49°09' W 123°02'0 0.0
2017-Jan-17 17:33N 49°09' W 123°02'0 0.0
2017-Jan-17 16:33N 49°09' W 123°02'0 0.0
2017-Jan-17 15:33N 49°09' W 123°02'9 8.9
2017-Jan-17 14:34N 49°07' W 123°16'10 9.5
2017-Jan-17 13:33N 48°58' W 123°18'1212.0
2017-Jan-17 12:33N 48°46' W 123°21'5 5.2
2017-Jan-17 11:33N 48°41' W 123°24'3 3.4
2017-Jan-17 10:33N 48°44' W 123°21'1413.8
2017-Jan-17 09:33N 48°57' W 123°18'1111.3
2017-Jan-17 08:34N 49°07' W 123°08'5 4.7
2017-Jan-17 07:34N 49°09' W 123°02'5 5.0
2017-Jan-17 06:34N 49°06' W 123°09'1010.0
2017-Jan-17 05:33N 48°59' W 123°19'1312.9
2017-Jan-17 04:33N 48°46' W 123°21'5 5.2
2017-Jan-17 03:33N 48°41' W 123°24'0 0.0
2017-Jan-17 02:33N 48°41' W 123°24'8 8.0
2017-Jan-17 01:32N 48°49' W 123°21'1111.7
2017-Jan-17 00:33N 49°01' W 123°20'1211.6
2017-Jan-16 23:33N 49°07' W 123°05'3 2.7
2017-Jan-16 22:33N 49°09' W 123°02'2 1.8
2017-Jan-16 21:33N 49°07' W 123°04'10 9.9
2017-Jan-16 20:34N 49°06' W 123°19'1413.5
2017-Jan-16 19:33N 48°52' W 123°18'1111.6
2017-Jan-16 18:33N 48°41' W 123°24'0 0.1
2017-Jan-16 17:33N 48°41' W 123°24'0 0.0
2017-Jan-16 16:33N 48°41' W 123°24'0 0.0
2017-Jan-16 15:33N 48°41' W 123°24'0 0.0
2017-Jan-16 14:32N 48°41' W 123°24'0 0.0
2017-Jan-16 13:33N 48°41' W 123°24'0 0.0
2017-Jan-16 12:33N 48°41' W 123°24'0 0.0
2017-Jan-16 11:33N 48°41' W 123°24'4 3.7
2017-Jan-16 10:34N 48°44' W 123°21'9 9.0
2017-Jan-16 09:33N 48°53' W 123°18'1111.4
2017-Jan-16 08:34N 49°04' W 123°20'1212.0
2017-Jan-16 07:33N 49°09' W 123°02'0 0.2
2017-Jan-16 06:33N 49°09' W 123°02'0 0.0
2017-Jan-16 05:34N 49°09' W 123°02'0 0.0
2017-Jan-16 04:33N 49°09' W 123°02'0 0.0
2017-Jan-16 03:33N 49°09' W 123°02'0 0.0
2017-Jan-16 02:33N 49°09' W 123°02'0 0.0
2017-Jan-16 01:33N 49°09' W 123°02'0 0.0
2017-Jan-16 00:33N 49°09' W 123°02'0 0.0
2017-Jan-15 23:33N 49°09' W 123°02'0 0.0
2017-Jan-15 22:33N 49°09' W 123°02'0 0.0
2017-Jan-15 21:34N 49°09' W 123°02'0 0.0
2017-Jan-15 20:33N 49°09' W 123°02'0 0.0
2017-Jan-15 19:34N 49°09' W 123°02'0 0.0
2017-Jan-15 18:33N 49°09' W 123°02'0 0.0
2017-Jan-15 17:33N 49°09' W 123°02'3 3.5
2017-Jan-15 16:34N 49°07' W 123°06'9 9.1
2017-Jan-15 15:33N 49°06' W 123°20'1010.2
2017-Jan-15 14:33N 49°10' W 123°35'10 9.9
2017-Jan-15 13:33N 49°13' W 123°49'3 0.7
2017-Jan-15 09:29N 49°12' W 123°53'9 9.8
2017-Jan-15 08:33N 49°11' W 123°39'1010.3
2017-Jan-15 07:32N 49°07' W 123°24'1211.9
2017-Jan-15 06:33N 49°07' W 123°07'4 3.5
2017-Jan-15 05:33N 49°09' W 123°02'0 0.0
2017-Jan-15 04:34N 49°09' W 123°02'0 0.0
2017-Jan-15 03:34N 49°09' W 123°02'0 0.0
2017-Jan-15 02:34N 49°09' W 123°02'0 0.0
2017-Jan-15 01:34N 49°09' W 123°02'0 0.0
2017-Jan-15 00:34N 49°09' W 123°02'5 4.7
2017-Jan-14 23:34N 49°06' W 123°08'1110.6
2017-Jan-14 22:34N 49°07' W 123°25'1111.3
2017-Jan-14 21:33N 49°11' W 123°41'6 0.6
2017-Jan-14 11:33N 49°14' W 123°50'1413.9
2017-Jan-14 10:31N 49°08' W 123°30'1212.6
2017-Jan-14 09:33N 49°07' W 123°12'6 6.4
2017-Jan-14 08:33N 49°09' W 123°02'0 0.0
2017-Jan-14 07:33N 49°09' W 123°02'7 7.4
2017-Jan-14 06:33N 49°08' W 123°13'9 9.2
2017-Jan-14 05:33N 48°59' W 123°18'1010.1
2017-Jan-14 04:31N 48°49' W 123°20'8 8.0
2017-Jan-14 03:33N 48°41' W 123°24'30 7.6
2017-Jan-13 23:34N 49°08' W 123°03'1 0.7
2017-Jan-13 22:33N 49°09' W 123°02'2 1.5
2017-Jan-13 21:33N 49°08' W 123°04'1111.1
2017-Jan-13 20:33N 49°06' W 123°21'1313.1
2017-Jan-13 19:32N 49°11' W 123°40'8 0.9
2017-Jan-13 11:32N 49°13' W 123°51'1312.4
2017-Jan-13 10:31N 49°10' W 123°33'1313.2
2017-Jan-13 09:33N 49°08' W 123°13'7 7.4
2017-Jan-13 08:34N 49°09' W 123°02'0 0.0
2017-Jan-13 07:33N 49°09' W 123°02'8 8.3
2017-Jan-13 06:34N 49°08' W 123°15'10 9.9
2017-Jan-13 05:34N 48°58' W 123°18'1111.3
2017-Jan-13 04:33N 48°47' W 123°21'6 6.0
2017-Jan-13 03:33N 48°41' W 123°24'0 0.0
2017-Jan-13 02:33N 48°41' W 123°24'11 9.0
2017-Jan-13 01:21N 48°52' W 123°19'1215.7
2017-Jan-13 00:33N 49°04' W 123°19'1211.9
2017-Jan-12 23:33N 49°09' W 123°02'0 0.2
2017-Jan-12 22:34N 49°09' W 123°02'1 1.4
2017-Jan-12 21:33N 49°08' W 123°04'1111.4
2017-Jan-12 20:33N 49°06' W 123°21'1312.8
2017-Jan-12 19:34N 49°11' W 123°39'1110.9
2017-Jan-12 18:33N 49°10' W 123°56'0 0.1
2017-Jan-12 17:33N 49°10' W 123°56'0 0.0
2017-Jan-12 16:33N 49°10' W 123°56'0 0.0
2017-Jan-12 15:33N 49°10' W 123°56'0 0.0
2017-Jan-12 14:33N 49°10' W 123°56'0 0.0
2017-Jan-12 13:33N 49°10' W 123°56'0 0.0
2017-Jan-12 12:33N 49°10' W 123°56'5 5.1
2017-Jan-12 11:33N 49°13' W 123°50'1414.4
2017-Jan-12 10:33N 49°09' W 123°29'1313.4
2017-Jan-12 09:34N 49°07' W 123°09'5 5.1
2017-Jan-12 08:33N 49°09' W 123°02'0 0.1
2017-Jan-12 07:34N 49°09' W 123°02'10 9.6
2017-Jan-12 06:33N 49°07' W 123°17'1212.2
2017-Jan-12 05:33N 48°55' W 123°18'1212.3
2017-Jan-12 04:34N 48°43' W 123°25'2 2.1
2017-Jan-12 03:34N 48°41' W 123°24'0 0.0
2017-Jan-12 02:33N 48°41' W 123°24'11 9.8
2017-Jan-12 01:27N 48°52' W 123°19'1415.3
2017-Jan-12 00:34N 49°05' W 123°19'1211.7
2017-Jan-11 23:34N 49°09' W 123°02'0 0.1
2017-Jan-11 22:33N 49°09' W 123°02'1 1.3
2017-Jan-11 21:34N 49°08' W 123°04'1211.9
2017-Jan-11 20:33N 49°06' W 123°22'1312.7
2017-Jan-11 19:33N 49°12' W 123°39'1110.0
2017-Jan-11 18:28N 49°10' W 123°56'0 0.0
2017-Jan-11 17:29N 49°10' W 123°56'0 0.0
2017-Jan-11 16:33N 49°10' W 123°56'0 0.0
2017-Jan-11 15:28N 49°10' W 123°56'0 0.0
2017-Jan-11 14:31N 49°10' W 123°56'0 0.0
2017-Jan-11 13:20N 49°10' W 123°56'0 0.0
2017-Jan-11 12:32N 49°10' W 123°56'6 5.5
2017-Jan-11 11:32N 49°14' W 123°49'1414.3
2017-Jan-11 10:32N 49°09' W 123°29'1312.9
2017-Jan-11 09:33N 49°07' W 123°10'6 5.5
2017-Jan-11 08:34N 49°09' W 123°02'0 0.0
2017-Jan-11 07:33N 49°09' W 123°02'10 9.6
2017-Jan-11 06:34N 49°07' W 123°17'1312.7
2017-Jan-11 05:33N 48°54' W 123°19'1212.2
2017-Jan-11 04:33N 48°43' W 123°26'2 1.9
2017-Jan-11 03:33N 48°41' W 123°24'0 0.0
2017-Jan-11 02:33N 48°41' W 123°24'11 9.4
2017-Jan-11 01:22N 48°52' W 123°19'1215.4
2017-Jan-11 00:34N 49°04' W 123°19'1211.7
2017-Jan-10 23:34N 49°09' W 123°02'0 0.2
2017-Jan-10 22:33N 49°09' W 123°02'0 0.1
2017-Jan-10 21:34N 49°09' W 123°02'1010.1
2017-Jan-10 20:33N 49°06' W 123°18'1312.8
2017-Jan-10 19:33N 49°11' W 123°36'1111.5
2017-Jan-10 18:33N 49°11' W 123°54'2 1.5
2017-Jan-10 17:31N 49°10' W 123°56'0 0.0
2017-Jan-10 16:32N 49°10' W 123°56'0 0.0
2017-Jan-10 15:33N 49°10' W 123°56'0 0.0
2017-Jan-10 14:33N 49°10' W 123°56'0 0.0
2017-Jan-10 13:32N 49°10' W 123°56'0 0.0
2017-Jan-10 12:33N 49°10' W 123°56'5 5.3
2017-Jan-10 11:33N 49°14' W 123°50'1413.6
2017-Jan-10 10:33N 49°08' W 123°31'1312.8
2017-Jan-10 09:34N 49°07' W 123°11'6 6.2
2017-Jan-10 08:33N 49°09' W 123°02'0 0.0
2017-Jan-10 07:33N 49°09' W 123°02'7 6.7
2017-Jan-10 06:33N 49°07' W 123°12'1110.8
2017-Jan-10 05:33N 48°57' W 123°19'1313.3
2017-Jan-10 04:33N 48°44' W 123°21'4 3.8
2017-Jan-10 03:34N 48°41' W 123°24'0 0.0
2017-Jan-10 02:33N 48°41' W 123°24'7 6.5
2017-Jan-10 01:32N 48°47' W 123°21'1413.8
2017-Jan-10 00:33N 49°01' W 123°19'1110.8
2017-Jan-09 23:33N 49°07' W 123°05'3 2.7
2017-Jan-09 22:33N 49°09' W 123°02'0 0.0
2017-Jan-09 21:33N 49°09' W 123°02'  

Dump ship's entire track history